Time,TemperatureF,DewpointF,PressureIn,WindDirection,WindDirectionDegrees,WindSpeedMPH,WindSpeedGustMPH,Humidity,HourlyPrecipIn,Conditions,Clouds,dailyrainin,SoftwareType,DateUTC
2013-09-05 00:05:00,72.9,13.2,29.70,North,0,0.0,0.0,1,0.00,,,0.00,WUHU216HW,2013-09-05 04:05:00,
2013-09-05 00:35:00,72.7,13.2,29.69,North,0,0.0,0.0,1,0.00,,,0.00,WUHU216HW,2013-09-05 04:35:00,
2013-09-05 01:05:00,72.7,13.2,29.70,North,0,0.0,0.0,1,0.00,,,0.00,WUHU216HW,2013-09-05 05:05:00,
2013-09-05 01:10:00,72.7,13.2,29.70,North,0,0.0,0.0,1,0.00,,,0.00,WUHU216HW,2013-09-05 05:10:00,
2013-09-05 01:35:00,72.7,13.2,29.69,North,0,0.0,0.0,1,0.00,,,0.00,WUHU216HW,2013-09-05 05:35:00,
2013-09-05 02:05:00,72.5,13.0,29.68,North,0,0.0,0.0,1,0.00,,,0.00,WUHU216HW,2013-09-05 06:05:00,
2013-09-05 02:10:00,72.5,13.0,29.68,North,0,0.0,0.0,1,0.00,,,0.00,WUHU216HW,2013-09-05 06:10:00,
2013-09-05 02:35:00,72.4,12.8,29.69,North,0,0.0,0.0,1,0.00,,,0.00,WUHU216HW,2013-09-05 06:35:00,
2013-09-05 03:05:00,72.4,12.8,29.67,North,0,0.0,0.0,1,0.00,,,0.00,WUHU216HW,2013-09-05 07:05:00,
2013-09-05 03:35:00,72.0,12.5,29.68,North,0,0.0,0.0,1,0.00,,,0.00,WUHU216HW,2013-09-05 07:35:00,
2013-09-05 04:05:00,72.0,12.5,29.68,North,0,0.0,0.0,1,0.00,,,0.00,WUHU216HW,2013-09-05 08:05:00,
2013-09-05 04:10:00,72.0,12.5,29.68,North,0,0.0,0.0,1,0.00,,,0.00,WUHU216HW,2013-09-05 08:10:00,
2013-09-05 04:35:00,71.6,12.2,29.68,North,0,0.0,0.0,1,0.00,,,0.00,WUHU216HW,2013-09-05 08:35:00,
2013-09-05 05:05:00,71.6,12.2,29.68,North,0,0.0,0.0,1,0.00,,,0.00,WUHU216HW,2013-09-05 09:05:00,
2013-09-05 05:35:00,71.3,12.0,29.68,North,0,0.0,0.0,1,0.00,,,0.00,WUHU216HW,2013-09-05 09:35:00,
2013-09-05 06:05:00,71.3,12.0,29.68,North,0,0.0,0.0,1,0.00,,,0.00,WUHU216HW,2013-09-05 10:05:00,
2013-09-05 06:35:00,71.1,11.8,29.69,North,0,0.0,0.0,1,0.00,,,0.00,WUHU216HW,2013-09-05 10:35:00,
2013-09-05 07:05:00,71.1,11.8,29.69,North,0,0.0,0.0,1,0.00,,,0.00,WUHU216HW,2013-09-05 11:05:00,
2013-09-05 07:35:00,71.1,11.8,29.70,North,0,0.0,0.0,1,0.00,,,0.00,WUHU216HW,2013-09-05 11:35:00,
2013-09-05 08:05:00,71.6,12.2,29.70,North,0,0.0,0.0,1,0.00,,,0.00,WUHU216HW,2013-09-05 12:05:00,
2013-09-05 08:35:00,73.4,13.7,29.71,North,0,0.0,0.0,1,0.00,,,0.00,WUHU216HW,2013-09-05 12:35:00,
2013-09-05 09:05:00,75.6,15.2,29.72,North,0,0.0,0.0,1,0.00,,,0.00,WUHU216HW,2013-09-05 13:05:00,
2013-09-05 09:35:00,76.9,16.2,29.72,North,0,0.0,0.0,1,0.00,,,0.00,WUHU216HW,2013-09-05 13:35:00,
2013-09-05 10:05:00,79.0,17.8,29.72,North,0,0.0,0.0,1,0.00,,,0.00,WUHU216HW,2013-09-05 14:05:00,
2013-09-05 10:35:00,79.7,18.4,29.73,North,0,0.0,0.0,1,0.00,,,0.00,WUHU216HW,2013-09-05 14:35:00,
2013-09-05 11:05:00,79.9,18.6,29.73,North,0,0.0,0.0,1,0.00,,,0.00,WUHU216HW,2013-09-05 15:05:00,
2013-09-05 11:35:00,79.6,18.2,29.73,North,0,0.0,0.0,1,0.00,,,0.00,WUHU216HW,2013-09-05 15:35:00,
2013-09-05 12:05:00,81.0,19.4,29.72,North,0,0.0,0.0,1,0.00,,,0.00,WUHU216HW,2013-09-05 16:05:00,
2013-09-05 12:35:00,88.9,25.4,29.72,North,0,0.0,0.0,1,0.00,,,0.00,WUHU216HW,2013-09-05 16:35:00,
2013-09-05 13:05:00,90.0,26.2,29.71,North,0,0.0,0.0,1,0.00,,,0.00,WUHU216HW,2013-09-05 17:05:00,
2013-09-05 13:35:00,89.6,25.9,29.70,North,0,0.0,0.0,1,0.00,,,0.00,WUHU216HW,2013-09-05 17:35:00,
2013-09-05 14:05:00,89.8,26.1,29.69,North,0,0.0,0.0,1,0.00,,,0.00,WUHU216HW,2013-09-05 18:05:00,
2013-09-05 14:35:00,90.7,26.8,29.68,North,0,0.0,0.0,1,0.00,,,0.00,WUHU216HW,2013-09-05 18:35:00,
2013-09-05 15:05:00,91.6,27.5,29.67,North,0,0.0,0.0,1,0.00,,,0.00,WUHU216HW,2013-09-05 19:05:00,
2013-09-05 15:35:00,91.4,27.4,29.66,North,0,0.0,0.0,1,0.00,,,0.00,WUHU216HW,2013-09-05 19:35:00,
2013-09-05 16:05:00,91.8,27.6,29.64,North,0,0.0,0.0,1,0.00,,,0.00,WUHU216HW,2013-09-05 20:05:00,
2013-09-05 16:35:00,92.5,28.1,29.64,North,0,0.0,0.0,1,0.00,,,0.00,WUHU216HW,2013-09-05 20:35:00,
2013-09-05 17:05:00,91.3,27.2,29.64,North,0,0.0,0.0,1,0.00,,,0.00,WUHU216HW,2013-09-05 21:05:00,
2013-09-05 17:35:00,89.6,25.9,29.64,North,0,0.0,0.0,1,0.00,,,0.00,WUHU216HW,2013-09-05 21:35:00,
2013-09-05 18:05:00,87.1,24.1,29.64,North,0,0.0,0.0,1,0.00,,,0.00,WUHU216HW,2013-09-05 22:05:00,
2013-09-05 18:35:00,86.0,23.2,29.64,North,0,0.0,0.0,1,0.00,,,0.00,WUHU216HW,2013-09-05 22:35:00,
2013-09-05 19:05:00,85.1,22.5,29.64,North,0,0.0,0.0,1,0.00,,,0.00,WUHU216HW,2013-09-05 23:05:00,
2013-09-05 19:35:00,84.2,21.8,29.65,North,0,0.0,0.0,1,0.00,,,0.00,WUHU216HW,2013-09-05 23:35:00,
2013-09-05 20:05:00,82.4,20.5,29.67,North,0,0.0,0.0,1,0.00,,,0.00,WUHU216HW,2013-09-06 00:05:00,
2013-09-05 20:35:00,80.8,19.3,29.67,North,0,0.0,0.0,1,0.00,,,0.00,WUHU216HW,2013-09-06 00:35:00,
2013-09-05 21:05:00,78.8,17.6,29.67,North,0,0.0,0.0,1,0.00,,,0.00,WUHU216HW,2013-09-06 01:05:00,
2013-09-05 21:10:00,78.8,17.6,29.67,North,0,0.0,0.0,1,0.00,,,0.00,WUHU216HW,2013-09-06 01:10:00,
2013-09-05 21:35:00,77.8,16.9,29.68,North,0,0.0,0.0,1,0.00,,,0.00,WUHU216HW,2013-09-06 01:35:00,
2013-09-05 22:05:00,77.0,16.4,29.69,North,0,0.0,0.0,1,0.00,,,0.00,WUHU216HW,2013-09-06 02:05:00,
2013-09-05 22:35:00,76.7,16.1,29.69,North,0,0.0,0.0,1,0.00,,,0.00,WUHU216HW,2013-09-06 02:35:00,
2013-09-05 23:05:00,76.1,15.7,29.69,North,0,0.0,0.0,1,0.00,,,0.00,WUHU216HW,2013-09-06 03:05:00,
2013-09-05 23:10:00,76.1,15.7,29.69,North,0,0.0,0.0,1,0.00,,,0.00,WUHU216HW,2013-09-06 03:10:00,
2013-09-05 23:35:00,76.0,15.5,29.67,North,0,0.0,0.0,1,0.00,,,0.00,WUHU216HW,2013-09-06 03:35:00,